sensor_id;sensor_type;location;lat;lon;timestamp;P1;durP1;ratioP1;P2;durP2;ratioP2
12910;SDS011;6523;49.758;6.120;2023-12-20T00:01:03;1.87;;;1.70;;
12910;SDS011;6523;49.758;6.120;2023-12-20T00:03:29;1.63;;;1.43;;
12910;SDS011;6523;49.758;6.120;2023-12-20T00:05:54;1.90;;;1.80;;
12910;SDS011;6523;49.758;6.120;2023-12-20T00:08:20;1.40;;;1.27;;
12910;SDS011;6523;49.758;6.120;2023-12-20T00:10:46;1.27;;;1.17;;
12910;SDS011;6523;49.758;6.120;2023-12-20T00:13:11;1.37;;;1.27;;
12910;SDS011;6523;49.758;6.120;2023-12-20T00:15:37;1.40;;;1.20;;
12910;SDS011;6523;49.758;6.120;2023-12-20T00:18:03;1.10;;;1.00;;
12910;SDS011;6523;49.758;6.120;2023-12-20T00:20:29;1.63;;;1.53;;
12910;SDS011;6523;49.758;6.120;2023-12-20T00:22:55;1.90;;;1.80;;
12910;SDS011;6523;49.758;6.120;2023-12-20T00:25:22;1.60;;;1.50;;
12910;SDS011;6523;49.758;6.120;2023-12-20T00:27:51;1.50;;;1.40;;
12910;SDS011;6523;49.758;6.120;2023-12-20T00:30:17;1.57;;;1.47;;
12910;SDS011;6523;49.758;6.120;2023-12-20T00:32:43;1.97;;;1.40;;
12910;SDS011;6523;49.758;6.120;2023-12-20T00:35:14;1.60;;;1.40;;
12910;SDS011;6523;49.758;6.120;2023-12-20T00:37:40;2.43;;;1.40;;
12910;SDS011;6523;49.758;6.120;2023-12-20T00:40:06;1.57;;;1.37;;
12910;SDS011;6523;49.758;6.120;2023-12-20T00:42:33;1.50;;;1.30;;
12910;SDS011;6523;49.758;6.120;2023-12-20T00:44:59;1.40;;;1.30;;
12910;SDS011;6523;49.758;6.120;2023-12-20T00:47:25;1.70;;;1.23;;
12910;SDS011;6523;49.758;6.120;2023-12-20T00:49:50;1.60;;;1.43;;
12910;SDS011;6523;49.758;6.120;2023-12-20T00:52:16;3.33;;;1.60;;
12910;SDS011;6523;49.758;6.120;2023-12-20T00:54:44;1.40;;;1.30;;
12910;SDS011;6523;49.758;6.120;2023-12-20T00:57:10;1.40;;;1.30;;
12910;SDS011;6523;49.758;6.120;2023-12-20T00:59:36;1.40;;;1.30;;
12910;SDS011;6523;49.758;6.120;2023-12-20T01:02:02;1.63;;;1.40;;
12910;SDS011;6523;49.758;6.120;2023-12-20T01:04:27;1.57;;;1.47;;
12910;SDS011;6523;49.758;6.120;2023-12-20T01:06:53;1.00;;;1.00;;
12910;SDS011;6523;49.758;6.120;2023-12-20T01:09:18;1.00;;;1.00;;
12910;SDS011;6523;49.758;6.120;2023-12-20T01:11:44;1.43;;;1.10;;
12910;SDS011;6523;49.758;6.120;2023-12-20T01:14:11;2.30;;;1.20;;
12910;SDS011;6523;49.758;6.120;2023-12-20T01:16:37;1.40;;;1.30;;
12910;SDS011;6523;49.758;6.120;2023-12-20T01:19:03;0.90;;;0.90;;
12910;SDS011;6523;49.758;6.120;2023-12-20T01:21:28;1.33;;;1.23;;
12910;SDS011;6523;49.758;6.120;2023-12-20T01:23:54;3.03;;;1.33;;
12910;SDS011;6523;49.758;6.120;2023-12-20T01:26:19;1.33;;;1.23;;
12910;SDS011;6523;49.758;6.120;2023-12-20T01:28:45;1.20;;;1.10;;
12910;SDS011;6523;49.758;6.120;2023-12-20T01:31:10;1.33;;;1.23;;
12910;SDS011;6523;49.758;6.120;2023-12-20T01:33:36;2.07;;;1.60;;
12910;SDS011;6523;49.758;6.120;2023-12-20T01:36:02;1.53;;;1.43;;
12910;SDS011;6523;49.758;6.120;2023-12-20T01:38:28;1.73;;;1.63;;
12910;SDS011;6523;49.758;6.120;2023-12-20T01:40:54;1.80;;;1.43;;
12910;SDS011;6523;49.758;6.120;2023-12-20T01:43:19;2.97;;;2.73;;
12910;SDS011;6523;49.758;6.120;2023-12-20T01:45:45;2.77;;;2.57;;
12910;SDS011;6523;49.758;6.120;2023-12-20T01:48:12;2.63;;;2.30;;
12910;SDS011;6523;49.758;6.120;2023-12-20T01:50:38;1.80;;;1.70;;
12910;SDS011;6523;49.758;6.120;2023-12-20T01:53:05;2.73;;;2.40;;
12910;SDS011;6523;49.758;6.120;2023-12-20T01:55:34;2.53;;;2.33;;
12910;SDS011;6523;49.758;6.120;2023-12-20T01:58:03;2.90;;;2.33;;
12910;SDS011;6523;49.758;6.120;2023-12-20T02:00:29;3.37;;;2.97;;
12910;SDS011;6523;49.758;6.120;2023-12-20T02:02:55;3.37;;;2.80;;
12910;SDS011;6523;49.758;6.120;2023-12-20T02:05:25;4.43;;;3.60;;
12910;SDS011;6523;49.758;6.120;2023-12-20T02:07:52;4.10;;;3.70;;
12910;SDS011;6523;49.758;6.120;2023-12-20T02:10:18;3.93;;;3.23;;
12910;SDS011;6523;49.758;6.120;2023-12-20T02:12:44;4.47;;;3.77;;
12910;SDS011;6523;49.758;6.120;2023-12-20T02:15:09;4.80;;;3.83;;
12910;SDS011;6523;49.758;6.120;2023-12-20T02:17:35;4.67;;;4.13;;
12910;SDS011;6523;49.758;6.120;2023-12-20T02:20:01;5.57;;;4.53;;
12910;SDS011;6523;49.758;6.120;2023-12-20T02:22:27;13.20;;;7.83;;
12910;SDS011;6523;49.758;6.120;2023-12-20T02:24:53;7.33;;;4.53;;
12910;SDS011;6523;49.758;6.120;2023-12-20T02:27:19;4.80;;;4.30;;
12910;SDS011;6523;49.758;6.120;2023-12-20T02:29:46;8.73;;;5.23;;
12910;SDS011;6523;49.758;6.120;2023-12-20T02:32:13;5.97;;;4.20;;
12910;SDS011;6523;49.758;6.120;2023-12-20T02:34:38;4.90;;;4.10;;
12910;SDS011;6523;49.758;6.120;2023-12-20T02:37:04;5.67;;;3.87;;
12910;SDS011;6523;49.758;6.120;2023-12-20T02:39:30;6.57;;;5.47;;
12910;SDS011;6523;49.758;6.120;2023-12-20T02:41:55;7.00;;;4.80;;
12910;SDS011;6523;49.758;6.120;2023-12-20T02:44:21;5.57;;;4.40;;
12910;SDS011;6523;49.758;6.120;2023-12-20T02:46:46;7.80;;;5.27;;
12910;SDS011;6523;49.758;6.120;2023-12-20T02:49:12;4.67;;;3.93;;
12910;SDS011;6523;49.758;6.120;2023-12-20T02:51:38;6.33;;;4.40;;
12910;SDS011;6523;49.758;6.120;2023-12-20T02:54:03;5.70;;;4.00;;
12910;SDS011;6523;49.758;6.120;2023-12-20T02:56:29;6.30;;;3.43;;
12910;SDS011;6523;49.758;6.120;2023-12-20T02:58:55;3.73;;;3.30;;
12910;SDS011;6523;49.758;6.120;2023-12-20T03:01:20;6.00;;;3.27;;
12910;SDS011;6523;49.758;6.120;2023-12-20T03:03:46;5.30;;;2.93;;
12910;SDS011;6523;49.758;6.120;2023-12-20T03:06:15;2.30;;;1.97;;
12910;SDS011;6523;49.758;6.120;2023-12-20T03:08:44;5.80;;;2.60;;
12910;SDS011;6523;49.758;6.120;2023-12-20T03:11:10;4.90;;;2.73;;
12910;SDS011;6523;49.758;6.120;2023-12-20T03:13:36;7.27;;;2.30;;
12910;SDS011;6523;49.758;6.120;2023-12-20T03:16:07;4.53;;;1.93;;
12910;SDS011;6523;49.758;6.120;2023-12-20T03:18:33;4.07;;;1.70;;
12910;SDS011;6523;49.758;6.120;2023-12-20T03:20:59;6.00;;;2.30;;
12910;SDS011;6523;49.758;6.120;2023-12-20T03:23:24;5.77;;;2.10;;
12910;SDS011;6523;49.758;6.120;2023-12-20T03:25:51;3.77;;;1.67;;
12910;SDS011;6523;49.758;6.120;2023-12-20T03:28:16;6.90;;;2.10;;
12910;SDS011;6523;49.758;6.120;2023-12-20T03:30:42;4.47;;;2.07;;
12910;SDS011;6523;49.758;6.120;2023-12-20T03:33:08;5.47;;;1.93;;
12910;SDS011;6523;49.758;6.120;2023-12-20T03:35:33;3.13;;;1.80;;
12910;SDS011;6523;49.758;6.120;2023-12-20T03:37:59;2.43;;;1.87;;
12910;SDS011;6523;49.758;6.120;2023-12-20T03:40:25;5.00;;;2.40;;
12910;SDS011;6523;49.758;6.120;2023-12-20T03:42:51;6.23;;;1.93;;
12910;SDS011;6523;49.758;6.120;2023-12-20T03:45:16;3.30;;;1.90;;
12910;SDS011;6523;49.758;6.120;2023-12-20T03:47:42;4.23;;;2.10;;
12910;SDS011;6523;49.758;6.120;2023-12-20T03:50:07;4.20;;;1.90;;
12910;SDS011;6523;49.758;6.120;2023-12-20T03:52:33;4.83;;;1.90;;
12910;SDS011;6523;49.758;6.120;2023-12-20T03:54:59;1.93;;;1.73;;
12910;SDS011;6523;49.758;6.120;2023-12-20T03:57:24;6.90;;;2.40;;
12910;SDS011;6523;49.758;6.120;2023-12-20T03:59:50;3.00;;;2.27;;
12910;SDS011;6523;49.758;6.120;2023-12-20T04:02:15;4.37;;;1.90;;
12910;SDS011;6523;49.758;6.120;2023-12-20T04:04:42;3.40;;;1.70;;
12910;SDS011;6523;49.758;6.120;2023-12-20T04:07:08;6.67;;;1.90;;
12910;SDS011;6523;49.758;6.120;2023-12-20T04:09:34;2.90;;;2.20;;
12910;SDS011;6523;49.758;6.120;2023-12-20T04:11:59;4.87;;;1.90;;
12910;SDS011;6523;49.758;6.120;2023-12-20T04:14:25;3.73;;;2.00;;
12910;SDS011;6523;49.758;6.120;2023-12-20T04:16:50;2.57;;;1.97;;
12910;SDS011;6523;49.758;6.120;2023-12-20T04:19:16;5.30;;;1.97;;
12910;SDS011;6523;49.758;6.120;2023-12-20T04:21:42;4.90;;;2.10;;
12910;SDS011;6523;49.758;6.120;2023-12-20T04:24:07;3.53;;;1.93;;
12910;SDS011;6523;49.758;6.120;2023-12-20T04:26:33;4.27;;;1.83;;
12910;SDS011;6523;49.758;6.120;2023-12-20T04:28:58;5.30;;;2.20;;
12910;SDS011;6523;49.758;6.120;2023-12-20T04:31:24;5.57;;;2.50;;
12910;SDS011;6523;49.758;6.120;2023-12-20T04:33:49;5.57;;;2.13;;
12910;SDS011;6523;49.758;6.120;2023-12-20T04:36:15;4.60;;;2.03;;
12910;SDS011;6523;49.758;6.120;2023-12-20T04:38:41;5.67;;;2.27;;
12910;SDS011;6523;49.758;6.120;2023-12-20T04:41:06;3.63;;;2.40;;
12910;SDS011;6523;49.758;6.120;2023-12-20T04:43:32;5.47;;;2.00;;
12910;SDS011;6523;49.758;6.120;2023-12-20T04:45:58;4.10;;;2.00;;
12910;SDS011;6523;49.758;6.120;2023-12-20T04:48:24;6.70;;;2.20;;
12910;SDS011;6523;49.758;6.120;2023-12-20T04:50:50;7.50;;;2.83;;
12910;SDS011;6523;49.758;6.120;2023-12-20T04:53:15;4.67;;;2.30;;
12910;SDS011;6523;49.758;6.120;2023-12-20T04:55:41;5.90;;;2.63;;
12910;SDS011;6523;49.758;6.120;2023-12-20T04:58:06;8.70;;;2.20;;
12910;SDS011;6523;49.758;6.120;2023-12-20T05:00:32;5.67;;;2.57;;
12910;SDS011;6523;49.758;6.120;2023-12-20T05:02:58;6.57;;;2.83;;
12910;SDS011;6523;49.758;6.120;2023-12-20T05:05:23;7.97;;;2.67;;
12910;SDS011;6523;49.758;6.120;2023-12-20T05:07:49;4.43;;;2.43;;
12910;SDS011;6523;49.758;6.120;2023-12-20T05:10:15;5.80;;;2.40;;
12910;SDS011;6523;49.758;6.120;2023-12-20T05:12:41;5.33;;;2.83;;
12910;SDS011;6523;49.758;6.120;2023-12-20T05:15:07;6.83;;;3.30;;
12910;SDS011;6523;49.758;6.120;2023-12-20T05:17:33;7.27;;;2.77;;
12910;SDS011;6523;49.758;6.120;2023-12-20T05:19:59;7.53;;;2.43;;
12910;SDS011;6523;49.758;6.120;2023-12-20T05:22:24;7.23;;;3.03;;
12910;SDS011;6523;49.758;6.120;2023-12-20T05:24:50;8.63;;;2.97;;
12910;SDS011;6523;49.758;6.120;2023-12-20T05:27:15;5.93;;;3.10;;
12910;SDS011;6523;49.758;6.120;2023-12-20T05:29:41;6.60;;;2.67;;
12910;SDS011;6523;49.758;6.120;2023-12-20T05:32:06;7.37;;;3.00;;
12910;SDS011;6523;49.758;6.120;2023-12-20T05:34:32;9.10;;;3.07;;
12910;SDS011;6523;49.758;6.120;2023-12-20T05:36:58;7.43;;;3.27;;
12910;SDS011;6523;49.758;6.120;2023-12-20T05:39:23;10.43;;;3.70;;
12910;SDS011;6523;49.758;6.120;2023-12-20T05:41:49;8.83;;;3.63;;
12910;SDS011;6523;49.758;6.120;2023-12-20T05:44:15;5.83;;;3.07;;
12910;SDS011;6523;49.758;6.120;2023-12-20T05:46:40;9.23;;;3.50;;
12910;SDS011;6523;49.758;6.120;2023-12-20T05:49:06;6.73;;;2.90;;
12910;SDS011;6523;49.758;6.120;2023-12-20T05:51:32;7.53;;;3.03;;
12910;SDS011;6523;49.758;6.120;2023-12-20T05:53:58;3.23;;;2.83;;
12910;SDS011;6523;49.758;6.120;2023-12-20T05:56:23;7.73;;;4.03;;
12910;SDS011;6523;49.758;6.120;2023-12-20T05:58:49;7.47;;;3.20;;
12910;SDS011;6523;49.758;6.120;2023-12-20T06:01:15;7.60;;;3.23;;
12910;SDS011;6523;49.758;6.120;2023-12-20T06:03:42;7.43;;;3.27;;
12910;SDS011;6523;49.758;6.120;2023-12-20T06:06:08;7.47;;;3.30;;
12910;SDS011;6523;49.758;6.120;2023-12-20T06:08:34;7.07;;;3.33;;
12910;SDS011;6523;49.758;6.120;2023-12-20T06:10:59;5.30;;;3.10;;
12910;SDS011;6523;49.758;6.120;2023-12-20T06:13:25;7.03;;;3.50;;
12910;SDS011;6523;49.758;6.120;2023-12-20T06:15:51;5.57;;;3.20;;
12910;SDS011;6523;49.758;6.120;2023-12-20T06:18:19;5.83;;;2.70;;
12910;SDS011;6523;49.758;6.120;2023-12-20T06:20:44;5.63;;;2.90;;
12910;SDS011;6523;49.758;6.120;2023-12-20T06:23:10;12.10;;;2.77;;
12910;SDS011;6523;49.758;6.120;2023-12-20T06:25:35;7.20;;;2.70;;
12910;SDS011;6523;49.758;6.120;2023-12-20T06:28:01;5.57;;;2.60;;
12910;SDS011;6523;49.758;6.120;2023-12-20T06:30:26;6.23;;;2.97;;
12910;SDS011;6523;49.758;6.120;2023-12-20T06:32:53;9.00;;;3.30;;
12910;SDS011;6523;49.758;6.120;2023-12-20T06:35:19;9.23;;;3.07;;
12910;SDS011;6523;49.758;6.120;2023-12-20T06:37:45;9.63;;;3.10;;
12910;SDS011;6523;49.758;6.120;2023-12-20T06:40:10;8.87;;;2.90;;
12910;SDS011;6523;49.758;6.120;2023-12-20T06:42:36;10.57;;;3.30;;
12910;SDS011;6523;49.758;6.120;2023-12-20T06:45:02;11.60;;;3.57;;
12910;SDS011;6523;49.758;6.120;2023-12-20T06:47:28;11.33;;;3.73;;
12910;SDS011;6523;49.758;6.120;2023-12-20T06:49:54;9.87;;;3.33;;
12910;SDS011;6523;49.758;6.120;2023-12-20T06:52:19;9.00;;;3.37;;
12910;SDS011;6523;49.758;6.120;2023-12-20T06:54:45;6.53;;;3.03;;
12910;SDS011;6523;49.758;6.120;2023-12-20T06:57:11;6.17;;;3.30;;
12910;SDS011;6523;49.758;6.120;2023-12-20T06:59:40;7.00;;;3.00;;
12910;SDS011;6523;49.758;6.120;2023-12-20T07:02:06;6.53;;;3.30;;
12910;SDS011;6523;49.758;6.120;2023-12-20T07:04:31;9.03;;;3.27;;
12910;SDS011;6523;49.758;6.120;2023-12-20T07:06:57;7.17;;;3.43;;
12910;SDS011;6523;49.758;6.120;2023-12-20T07:09:25;10.20;;;3.60;;
12910;SDS011;6523;49.758;6.120;2023-12-20T07:11:51;13.07;;;3.53;;
12910;SDS011;6523;49.758;6.120;2023-12-20T07:14:17;9.67;;;3.70;;
12910;SDS011;6523;49.758;6.120;2023-12-20T07:16:43;7.40;;;3.03;;
12910;SDS011;6523;49.758;6.120;2023-12-20T07:19:08;8.00;;;3.27;;
12910;SDS011;6523;49.758;6.120;2023-12-20T07:21:34;9.80;;;3.63;;
12910;SDS011;6523;49.758;6.120;2023-12-20T07:24:00;9.57;;;3.50;;
12910;SDS011;6523;49.758;6.120;2023-12-20T07:26:25;9.30;;;3.53;;
12910;SDS011;6523;49.758;6.120;2023-12-20T07:28:51;7.20;;;3.53;;
12910;SDS011;6523;49.758;6.120;2023-12-20T07:31:17;9.10;;;3.87;;
12910;SDS011;6523;49.758;6.120;2023-12-20T07:33:42;6.80;;;3.60;;
12910;SDS011;6523;49.758;6.120;2023-12-20T07:36:08;8.63;;;3.13;;
12910;SDS011;6523;49.758;6.120;2023-12-20T07:38:34;8.90;;;4.73;;
12910;SDS011;6523;49.758;6.120;2023-12-20T07:40:59;6.70;;;3.60;;
12910;SDS011;6523;49.758;6.120;2023-12-20T07:43:25;12.03;;;4.57;;
12910;SDS011;6523;49.758;6.120;2023-12-20T07:45:51;11.23;;;3.93;;
12910;SDS011;6523;49.758;6.120;2023-12-20T07:48:16;7.80;;;4.60;;
12910;SDS011;6523;49.758;6.120;2023-12-20T07:50:42;11.33;;;4.70;;
12910;SDS011;6523;49.758;6.120;2023-12-20T07:53:08;10.30;;;5.00;;
12910;SDS011;6523;49.758;6.120;2023-12-20T07:55:33;13.10;;;4.77;;
12910;SDS011;6523;49.758;6.120;2023-12-20T07:57:59;11.83;;;4.67;;
12910;SDS011;6523;49.758;6.120;2023-12-20T08:00:25;9.60;;;4.97;;
12910;SDS011;6523;49.758;6.120;2023-12-20T08:02:51;12.30;;;4.87;;
12910;SDS011;6523;49.758;6.120;2023-12-20T08:05:17;9.43;;;4.63;;
12910;SDS011;6523;49.758;6.120;2023-12-20T08:07:42;8.57;;;4.60;;
12910;SDS011;6523;49.758;6.120;2023-12-20T08:10:08;14.73;;;5.40;;
12910;SDS011;6523;49.758;6.120;2023-12-20T08:12:34;11.97;;;5.70;;
12910;SDS011;6523;49.758;6.120;2023-12-20T08:15:00;11.30;;;5.70;;
12910;SDS011;6523;49.758;6.120;2023-12-20T08:17:26;12.27;;;5.00;;
12910;SDS011;6523;49.758;6.120;2023-12-20T08:19:52;11.67;;;5.67;;
12910;SDS011;6523;49.758;6.120;2023-12-20T08:22:17;11.27;;;5.67;;
12910;SDS011;6523;49.758;6.120;2023-12-20T08:24:43;11.60;;;6.23;;
12910;SDS011;6523;49.758;6.120;2023-12-20T08:27:08;13.77;;;5.73;;
12910;SDS011;6523;49.758;6.120;2023-12-20T08:29:34;10.03;;;5.63;;
12910;SDS011;6523;49.758;6.120;2023-12-20T08:32:00;14.33;;;6.27;;
12910;SDS011;6523;49.758;6.120;2023-12-20T08:34:26;12.90;;;5.80;;
12910;SDS011;6523;49.758;6.120;2023-12-20T08:36:52;10.10;;;6.03;;
12910;SDS011;6523;49.758;6.120;2023-12-20T08:39:17;15.20;;;6.63;;
12910;SDS011;6523;49.758;6.120;2023-12-20T08:41:43;15.60;;;6.43;;
12910;SDS011;6523;49.758;6.120;2023-12-20T08:44:09;12.17;;;5.40;;
12910;SDS011;6523;49.758;6.120;2023-12-20T08:46:35;13.27;;;5.60;;
12910;SDS011;6523;49.758;6.120;2023-12-20T08:49:01;11.17;;;5.60;;
12910;SDS011;6523;49.758;6.120;2023-12-20T08:51:27;13.07;;;6.70;;
12910;SDS011;6523;49.758;6.120;2023-12-20T08:53:53;13.27;;;6.33;;
12910;SDS011;6523;49.758;6.120;2023-12-20T08:56:19;11.93;;;5.20;;
12910;SDS011;6523;49.758;6.120;2023-12-20T08:58:45;12.97;;;5.20;;
12910;SDS011;6523;49.758;6.120;2023-12-20T09:01:11;11.67;;;5.73;;
12910;SDS011;6523;49.758;6.120;2023-12-20T09:03:38;12.83;;;5.50;;
12910;SDS011;6523;49.758;6.120;2023-12-20T09:06:04;11.80;;;5.63;;
12910;SDS011;6523;49.758;6.120;2023-12-20T09:08:30;11.70;;;5.23;;
12910;SDS011;6523;49.758;6.120;2023-12-20T09:10:56;14.43;;;5.27;;
12910;SDS011;6523;49.758;6.120;2023-12-20T09:13:22;14.47;;;4.80;;
12910;SDS011;6523;49.758;6.120;2023-12-20T09:15:52;11.83;;;4.20;;
12910;SDS011;6523;49.758;6.120;2023-12-20T09:18:21;10.43;;;5.63;;
12910;SDS011;6523;49.758;6.120;2023-12-20T09:20:47;11.13;;;4.30;;
12910;SDS011;6523;49.758;6.120;2023-12-20T09:23:13;7.03;;;4.20;;
12910;SDS011;6523;49.758;6.120;2023-12-20T09:25:39;11.27;;;4.27;;
12910;SDS011;6523;49.758;6.120;2023-12-20T09:28:04;10.50;;;3.83;;
12910;SDS011;6523;49.758;6.120;2023-12-20T09:30:30;5.93;;;3.23;;
12910;SDS011;6523;49.758;6.120;2023-12-20T09:32:56;10.37;;;3.57;;
12910;SDS011;6523;49.758;6.120;2023-12-20T09:35:22;10.23;;;3.17;;
12910;SDS011;6523;49.758;6.120;2023-12-20T09:37:48;9.23;;;3.97;;
12910;SDS011;6523;49.758;6.120;2023-12-20T09:40:14;8.70;;;3.33;;
12910;SDS011;6523;49.758;6.120;2023-12-20T09:42:56;5.73;;;2.80;;
12910;SDS011;6523;49.758;6.120;2023-12-20T09:45:23;6.67;;;3.17;;
12910;SDS011;6523;49.758;6.120;2023-12-20T09:47:50;6.87;;;2.67;;
12910;SDS011;6523;49.758;6.120;2023-12-20T09:50:17;6.50;;;2.70;;
12910;SDS011;6523;49.758;6.120;2023-12-20T09:52:44;6.53;;;2.83;;
12910;SDS011;6523;49.758;6.120;2023-12-20T09:55:14;11.47;;;3.60;;
12910;SDS011;6523;49.758;6.120;2023-12-20T09:57:42;7.40;;;2.97;;
12910;SDS011;6523;49.758;6.120;2023-12-20T10:00:08;10.47;;;3.37;;
12910;SDS011;6523;49.758;6.120;2023-12-20T10:02:34;14.13;;;3.60;;
12910;SDS011;6523;49.758;6.120;2023-12-20T10:05:03;5.67;;;3.00;;
12910;SDS011;6523;49.758;6.120;2023-12-20T10:07:34;6.27;;;2.53;;
12910;SDS011;6523;49.758;6.120;2023-12-20T10:10:00;4.63;;;3.20;;
12910;SDS011;6523;49.758;6.120;2023-12-20T10:12:27;6.20;;;2.33;;
12910;SDS011;6523;49.758;6.120;2023-12-20T10:14:53;9.20;;;3.30;;
12910;SDS011;6523;49.758;6.120;2023-12-20T10:17:18;9.50;;;3.23;;
12910;SDS011;6523;49.758;6.120;2023-12-20T10:19:44;6.97;;;3.00;;
12910;SDS011;6523;49.758;6.120;2023-12-20T10:22:09;8.03;;;2.57;;
12910;SDS011;6523;49.758;6.120;2023-12-20T10:24:35;8.30;;;2.77;;
12910;SDS011;6523;49.758;6.120;2023-12-20T10:27:01;7.03;;;2.57;;
12910;SDS011;6523;49.758;6.120;2023-12-20T10:29:31;12.37;;;3.80;;
12910;SDS011;6523;49.758;6.120;2023-12-20T10:32:05;11.63;;;3.40;;
12910;SDS011;6523;49.758;6.120;2023-12-20T10:34:53;11.40;;;3.40;;
12910;SDS011;6523;49.758;6.120;2023-12-20T10:37:19;11.10;;;3.13;;
12910;SDS011;6523;49.758;6.120;2023-12-20T10:39:52;8.10;;;3.27;;
12910;SDS011;6523;49.758;6.120;2023-12-20T10:42:22;6.43;;;3.47;;
12910;SDS011;6523;49.758;6.120;2023-12-20T10:44:51;9.33;;;3.53;;
12910;SDS011;6523;49.758;6.120;2023-12-20T10:47:18;4.97;;;2.93;;
12910;SDS011;6523;49.758;6.120;2023-12-20T10:49:45;7.03;;;2.90;;
12910;SDS011;6523;49.758;6.120;2023-12-20T10:52:11;8.60;;;3.07;;
12910;SDS011;6523;49.758;6.120;2023-12-20T10:54:38;8.50;;;2.87;;
12910;SDS011;6523;49.758;6.120;2023-12-20T10:57:07;9.07;;;3.23;;
12910;SDS011;6523;49.758;6.120;2023-12-20T10:59:33;10.00;;;3.77;;
12910;SDS011;6523;49.758;6.120;2023-12-20T11:02:02;9.23;;;3.40;;
12910;SDS011;6523;49.758;6.120;2023-12-20T11:04:52;10.87;;;3.23;;
12910;SDS011;6523;49.758;6.120;2023-12-20T11:10:18;8.03;;;3.10;;
12910;SDS011;6523;49.758;6.120;2023-12-20T11:12:52;7.20;;;3.03;;
12910;SDS011;6523;49.758;6.120;2023-12-20T11:15:21;10.00;;;2.80;;
12910;SDS011;6523;49.758;6.120;2023-12-20T11:17:54;8.57;;;3.20;;
12910;SDS011;6523;49.758;6.120;2023-12-20T11:20:22;6.63;;;2.60;;
12910;SDS011;6523;49.758;6.120;2023-12-20T11:22:54;6.07;;;2.13;;
12910;SDS011;6523;49.758;6.120;2023-12-20T11:25:21;6.63;;;2.53;;
12910;SDS011;6523;49.758;6.120;2023-12-20T11:28:06;6.53;;;2.43;;
12910;SDS011;6523;49.758;6.120;2023-12-20T11:30:53;7.83;;;2.80;;
12910;SDS011;6523;49.758;6.120;2023-12-20T11:33:23;6.00;;;2.30;;
12910;SDS011;6523;49.758;6.120;2023-12-20T11:35:50;8.33;;;2.40;;
12910;SDS011;6523;49.758;6.120;2023-12-20T11:38:16;7.87;;;2.63;;
12910;SDS011;6523;49.758;6.120;2023-12-20T11:40:44;3.73;;;2.30;;
12910;SDS011;6523;49.758;6.120;2023-12-20T11:43:16;10.40;;;2.87;;
12910;SDS011;6523;49.758;6.120;2023-12-20T11:46:03;8.67;;;2.20;;
12910;SDS011;6523;49.758;6.120;2023-12-20T11:48:37;6.70;;;2.67;;
12910;SDS011;6523;49.758;6.120;2023-12-20T11:51:13;6.97;;;2.70;;
12910;SDS011;6523;49.758;6.120;2023-12-20T11:53:39;9.23;;;2.93;;
12910;SDS011;6523;49.758;6.120;2023-12-20T11:56:06;10.40;;;3.43;;
12910;SDS011;6523;49.758;6.120;2023-12-20T11:58:32;7.93;;;3.00;;
12910;SDS011;6523;49.758;6.120;2023-12-20T12:00:58;5.87;;;2.80;;
12910;SDS011;6523;49.758;6.120;2023-12-20T12:03:24;5.60;;;2.80;;
12910;SDS011;6523;49.758;6.120;2023-12-20T12:05:50;7.77;;;2.77;;
12910;SDS011;6523;49.758;6.120;2023-12-20T12:08:16;6.00;;;2.60;;
12910;SDS011;6523;49.758;6.120;2023-12-20T12:10:42;8.80;;;2.73;;
12910;SDS011;6523;49.758;6.120;2023-12-20T12:13:11;8.53;;;3.17;;
12910;SDS011;6523;49.758;6.120;2023-12-20T12:15:37;8.33;;;2.63;;
12910;SDS011;6523;49.758;6.120;2023-12-20T12:18:03;10.13;;;3.40;;
12910;SDS011;6523;49.758;6.120;2023-12-20T12:20:30;8.17;;;3.57;;
12910;SDS011;6523;49.758;6.120;2023-12-20T12:22:59;6.97;;;3.30;;
12910;SDS011;6523;49.758;6.120;2023-12-20T12:25:31;10.73;;;3.30;;
12910;SDS011;6523;49.758;6.120;2023-12-20T12:27:58;7.07;;;3.10;;
12910;SDS011;6523;49.758;6.120;2023-12-20T12:30:24;5.27;;;2.97;;
12910;SDS011;6523;49.758;6.120;2023-12-20T12:32:50;7.17;;;3.60;;
12910;SDS011;6523;49.758;6.120;2023-12-20T12:35:17;10.03;;;3.27;;
12910;SDS011;6523;49.758;6.120;2023-12-20T12:37:43;10.97;;;3.27;;
12910;SDS011;6523;49.758;6.120;2023-12-20T12:40:10;6.33;;;3.13;;
12910;SDS011;6523;49.758;6.120;2023-12-20T12:42:40;8.60;;;2.90;;
12910;SDS011;6523;49.758;6.120;2023-12-20T12:45:08;9.33;;;3.37;;
12910;SDS011;6523;49.758;6.120;2023-12-20T12:47:34;10.83;;;2.60;;
12910;SDS011;6523;49.758;6.120;2023-12-20T12:50:00;10.30;;;3.57;;
12910;SDS011;6523;49.758;6.120;2023-12-20T12:52:26;11.67;;;3.27;;
12910;SDS011;6523;49.758;6.120;2023-12-20T12:54:52;8.03;;;2.80;;
12910;SDS011;6523;49.758;6.120;2023-12-20T12:57:18;8.37;;;3.23;;
12910;SDS011;6523;49.758;6.120;2023-12-20T12:59:44;5.70;;;2.63;;
12910;SDS011;6523;49.758;6.120;2023-12-20T13:02:13;7.57;;;3.33;;
12910;SDS011;6523;49.758;6.120;2023-12-20T13:04:40;5.40;;;2.50;;
12910;SDS011;6523;49.758;6.120;2023-12-20T13:07:06;7.77;;;3.17;;
12910;SDS011;6523;49.758;6.120;2023-12-20T13:09:33;8.17;;;3.37;;
12910;SDS011;6523;49.758;6.120;2023-12-20T13:11:58;6.57;;;2.90;;
12910;SDS011;6523;49.758;6.120;2023-12-20T13:14:24;7.27;;;2.90;;
12910;SDS011;6523;49.758;6.120;2023-12-20T13:16:50;10.60;;;3.80;;
12910;SDS011;6523;49.758;6.120;2023-12-20T13:19:15;9.73;;;2.93;;
12910;SDS011;6523;49.758;6.120;2023-12-20T13:21:41;5.83;;;3.03;;
12910;SDS011;6523;49.758;6.120;2023-12-20T13:24:07;7.47;;;3.20;;
12910;SDS011;6523;49.758;6.120;2023-12-20T13:26:32;7.73;;;3.50;;
12910;SDS011;6523;49.758;6.120;2023-12-20T13:28:58;7.57;;;3.43;;
12910;SDS011;6523;49.758;6.120;2023-12-20T13:31:24;9.17;;;3.23;;
12910;SDS011;6523;49.758;6.120;2023-12-20T13:33:49;11.30;;;3.57;;
12910;SDS011;6523;49.758;6.120;2023-12-20T13:36:17;6.40;;;3.23;;
12910;SDS011;6523;49.758;6.120;2023-12-20T13:38:43;9.70;;;3.17;;
12910;SDS011;6523;49.758;6.120;2023-12-20T13:41:08;9.67;;;3.60;;
12910;SDS011;6523;49.758;6.120;2023-12-20T13:43:34;7.43;;;3.27;;
12910;SDS011;6523;49.758;6.120;2023-12-20T13:46:00;9.23;;;3.13;;
12910;SDS011;6523;49.758;6.120;2023-12-20T13:48:25;7.47;;;3.30;;
12910;SDS011;6523;49.758;6.120;2023-12-20T13:50:51;5.87;;;3.03;;
12910;SDS011;6523;49.758;6.120;2023-12-20T13:53:17;8.97;;;3.30;;
12910;SDS011;6523;49.758;6.120;2023-12-20T13:55:42;7.57;;;2.80;;
12910;SDS011;6523;49.758;6.120;2023-12-20T13:58:08;10.37;;;3.17;;
12910;SDS011;6523;49.758;6.120;2023-12-20T14:00:37;7.87;;;3.10;;
12910;SDS011;6523;49.758;6.120;2023-12-20T14:03:05;9.80;;;3.00;;
12910;SDS011;6523;49.758;6.120;2023-12-20T14:05:32;10.73;;;3.23;;
12910;SDS011;6523;49.758;6.120;2023-12-20T14:07:58;6.57;;;3.10;;
12910;SDS011;6523;49.758;6.120;2023-12-20T14:10:24;10.90;;;2.90;;
12910;SDS011;6523;49.758;6.120;2023-12-20T14:12:51;15.67;;;5.87;;
12910;SDS011;6523;49.758;6.120;2023-12-20T14:15:18;9.67;;;3.63;;
12910;SDS011;6523;49.758;6.120;2023-12-20T14:17:43;9.17;;;3.70;;
12910;SDS011;6523;49.758;6.120;2023-12-20T14:20:09;9.43;;;3.00;;
12910;SDS011;6523;49.758;6.120;2023-12-20T14:22:37;8.57;;;3.67;;
12910;SDS011;6523;49.758;6.120;2023-12-20T14:25:03;7.93;;;3.40;;
12910;SDS011;6523;49.758;6.120;2023-12-20T14:27:29;10.43;;;3.77;;
12910;SDS011;6523;49.758;6.120;2023-12-20T14:29:55;7.60;;;2.97;;
12910;SDS011;6523;49.758;6.120;2023-12-20T14:32:20;9.40;;;3.13;;
12910;SDS011;6523;49.758;6.120;2023-12-20T14:34:46;8.17;;;2.90;;
12910;SDS011;6523;49.758;6.120;2023-12-20T14:37:12;9.43;;;3.73;;
12910;SDS011;6523;49.758;6.120;2023-12-20T14:39:38;7.40;;;3.17;;
12910;SDS011;6523;49.758;6.120;2023-12-20T14:42:06;9.63;;;2.80;;
12910;SDS011;6523;49.758;6.120;2023-12-20T14:44:36;6.50;;;2.90;;
12910;SDS011;6523;49.758;6.120;2023-12-20T14:47:01;6.60;;;2.63;;
12910;SDS011;6523;49.758;6.120;2023-12-20T14:49:27;7.80;;;3.00;;
12910;SDS011;6523;49.758;6.120;2023-12-20T14:51:53;6.20;;;2.50;;
12910;SDS011;6523;49.758;6.120;2023-12-20T14:54:18;7.87;;;2.70;;
12910;SDS011;6523;49.758;6.120;2023-12-20T14:56:45;6.67;;;2.60;;